createdAt,value
2018-12-07T00:00:09.930Z,53.07
2018-12-07T00:02:35.865Z,53.49
2018-12-07T00:05:01.828Z,53.41
2018-12-07T00:07:27.766Z,53.57
2018-12-07T00:09:53.721Z,53.15
2018-12-07T00:12:19.666Z,53.23
2018-12-07T00:14:45.612Z,53.25
2018-12-07T00:17:11.509Z,53.24
2018-12-07T00:19:37.444Z,53.40
2018-12-07T00:22:04.381Z,53.15
2018-12-07T00:24:31.676Z,53.51
2018-12-07T00:26:57.650Z,53.16
2018-12-07T00:29:23.598Z,52.95
2018-12-07T00:31:49.578Z,53.28
2018-12-07T00:34:15.962Z,53.06
2018-12-07T00:36:42.708Z,53.03
2018-12-07T00:39:08.649Z,53.24
2018-12-07T00:41:34.639Z,53.10
2018-12-07T00:44:02.456Z,53.11
2018-12-07T00:46:28.390Z,53.13
2018-12-07T00:48:54.504Z,53.16
2018-12-07T00:51:21.370Z,53.28
2018-12-07T00:56:39.985Z,53.51
2018-12-07T00:59:05.960Z,53.38
2018-12-07T01:01:31.932Z,53.35
2018-12-07T01:03:57.869Z,53.41
2018-12-07T01:06:23.815Z,53.45
2018-12-07T01:08:50.520Z,53.46
2018-12-07T01:11:17.290Z,53.13
2018-12-07T01:13:43.223Z,53.25
2018-12-07T01:16:09.981Z,53.36
2018-12-07T01:18:35.912Z,53.61
2018-12-07T01:21:02.778Z,53.67
2018-12-07T01:23:29.718Z,53.26
2018-12-07T01:25:56.456Z,53.56
2018-12-07T01:28:23.239Z,53.25
2018-12-07T01:30:49.166Z,53.42
2018-12-07T01:33:16.250Z,53.52
2018-12-07T01:35:42.194Z,53.50
2018-12-07T01:38:08.131Z,53.42
2018-12-07T01:40:34.069Z,53.84
2018-12-07T01:43:02.143Z,53.42
2018-12-07T01:45:28.089Z,53.71
2018-12-07T01:47:54.021Z,53.63
2018-12-07T01:50:19.965Z,53.70
2018-12-07T01:52:46.898Z,53.63
2018-12-07T01:55:12.890Z,54.15
2018-12-07T01:57:38.849Z,53.50
2018-12-07T02:00:06.598Z,53.73
2018-12-07T02:02:33.474Z,54.02
2018-12-07T02:05:00.230Z,53.68
2018-12-07T02:07:28.842Z,53.56
2018-12-07T02:09:56.165Z,53.90
2018-12-07T02:12:22.109Z,53.69
2018-12-07T02:14:48.083Z,53.83
2018-12-07T02:17:14.016Z,54.12
2018-12-07T02:19:39.958Z,53.93
2018-12-07T02:22:05.931Z,53.90
2018-12-07T02:24:31.873Z,53.95
2018-12-07T02:26:57.799Z,54.13
2018-12-07T02:29:23.731Z,53.96
2018-12-07T02:31:49.699Z,54.15
2018-12-07T02:34:15.646Z,53.99
2018-12-07T02:36:42.513Z,53.60
2018-12-07T02:39:09.284Z,53.99
2018-12-07T02:41:36.099Z,53.89
2018-12-07T02:44:02.824Z,54.10
2018-12-07T02:46:29.645Z,53.79
2018-12-07T02:48:56.429Z,53.77
2018-12-07T02:51:23.394Z,53.69
2018-12-07T02:53:49.322Z,53.69
2018-12-07T02:56:16.226Z,54.15
2018-12-07T02:58:42.168Z,53.98
2018-12-07T03:01:08.946Z,53.79
2018-12-07T03:03:35.703Z,54.08
2018-12-07T03:06:02.511Z,54.16
2018-12-07T03:08:29.336Z,53.65
2018-12-07T03:10:55.326Z,54.11
2018-12-07T03:13:22.255Z,54.28
2018-12-07T03:15:49.071Z,54.10
2018-12-07T03:18:29.160Z,54.21
2018-12-07T03:20:56.177Z,54.30
2018-12-07T03:23:22.953Z,54.14
2018-12-07T03:25:49.722Z,54.12
2018-12-07T03:28:16.487Z,54.06
2018-12-07T03:30:42.433Z,54.18
2018-12-07T03:33:09.286Z,54.46
2018-12-07T03:35:36.083Z,53.95
2018-12-07T03:38:03.009Z,54.50
2018-12-07T03:40:29.950Z,54.49
2018-12-07T03:42:56.920Z,54.39
2018-12-07T03:45:22.849Z,54.23
2018-12-07T03:47:49.603Z,54.20
2018-12-07T03:50:15.544Z,54.64
2018-12-07T03:52:42.322Z,54.54
2018-12-07T03:55:09.083Z,54.49
2018-12-07T03:57:35.814Z,54.51
2018-12-07T04:00:03.565Z,54.29
2018-12-07T04:02:30.339Z,54.52
2018-12-07T04:04:57.214Z,54.49
2018-12-07T04:07:23.166Z,54.83
2018-12-07T04:09:49.098Z,54.34
2018-12-07T04:12:15.039Z,55.05
2018-12-07T04:14:41.034Z,54.68
2018-12-07T04:17:06.958Z,54.83
2018-12-07T04:19:32.888Z,54.96
2018-12-07T04:21:58.820Z,54.93
2018-12-07T04:24:24.752Z,55.16
2018-12-07T04:26:50.689Z,55.21
2018-12-07T04:29:16.624Z,54.85
2018-12-07T04:31:43.596Z,54.92
2018-12-07T04:34:09.554Z,54.61
2018-12-07T04:36:36.340Z,55.03
2018-12-07T04:39:04.195Z,55.00
2018-12-07T04:41:31.947Z,55.00
2018-12-07T04:43:57.933Z,55.23
2018-12-07T04:46:24.792Z,55.28
2018-12-07T04:48:51.819Z,54.90
2018-12-07T04:51:17.845Z,54.97
2018-12-07T04:53:43.870Z,55.31
2018-12-07T04:56:10.773Z,55.07
2018-12-07T04:58:37.627Z,55.22
2018-12-07T05:01:03.558Z,54.96
2018-12-07T05:03:30.546Z,54.76
2018-12-07T05:05:56.508Z,55.08
2018-12-07T05:08:23.493Z,54.83
2018-12-07T05:10:50.422Z,55.05
2018-12-07T05:13:16.356Z,54.92
2018-12-07T05:15:42.338Z,54.92
2018-12-07T05:18:09.207Z,55.39
2018-12-07T05:20:35.185Z,54.78
2018-12-07T05:23:02.170Z,54.67
2018-12-07T05:25:29.065Z,54.66
2018-12-07T05:27:56.085Z,55.06
2018-12-07T05:30:23.078Z,54.95
2018-12-07T05:32:49.822Z,55.13
2018-12-07T05:35:16.724Z,55.31
2018-12-07T05:37:42.741Z,55.26
2018-12-07T05:40:09.653Z,55.34
2018-12-07T05:42:35.732Z,55.13
2018-12-07T05:45:02.027Z,55.44
2018-12-07T05:47:27.971Z,55.28
2018-12-07T05:49:56.669Z,55.31
2018-12-07T05:52:22.657Z,55.36
2018-12-07T05:54:48.588Z,55.74
2018-12-07T05:57:14.516Z,55.59
2018-12-07T05:59:40.522Z,55.54
2018-12-07T06:02:07.239Z,55.57
2018-12-07T06:04:33.225Z,55.67
2018-12-07T06:06:59.166Z,55.55
2018-12-07T06:09:25.104Z,55.99
2018-12-07T06:11:51.056Z,55.89
2018-12-07T06:14:18.079Z,55.83
2018-12-07T06:16:44.005Z,55.85
2018-12-07T06:19:10.856Z,55.69
2018-12-07T06:21:36.807Z,56.18
2018-12-07T06:24:02.741Z,55.85
2018-12-07T06:26:29.602Z,55.83
2018-12-07T06:28:55.523Z,56.17
2018-12-07T06:31:21.487Z,55.96
2018-12-07T06:33:48.291Z,56.23
2018-12-07T06:36:14.653Z,56.00
2018-12-07T06:38:40.608Z,56.36
2018-12-07T06:41:07.492Z,56.20
2018-12-07T06:43:34.251Z,56.19
2018-12-07T06:46:00.253Z,56.14
2018-12-07T06:48:26.992Z,56.09
2018-12-07T06:50:52.946Z,56.47
2018-12-07T06:53:19.704Z,56.03
2018-12-07T06:55:45.631Z,56.03
2018-12-07T06:58:12.381Z,56.51
2018-12-07T07:00:38.336Z,56.33
2018-12-07T07:03:04.274Z,56.59
2018-12-07T07:05:30.208Z,56.18
2018-12-07T07:07:56.113Z,56.63
2018-12-07T07:10:23.060Z,56.10
2018-12-07T07:12:49.884Z,56.31
2018-12-07T07:15:15.814Z,55.53
2018-12-07T07:17:41.753Z,56.01
2018-12-07T07:20:08.720Z,56.14
2018-12-07T07:22:34.671Z,56.30
2018-12-07T07:25:02.544Z,56.18
2018-12-07T07:27:28.490Z,56.07
2018-12-07T07:29:55.235Z,56.52
2018-12-07T07:32:22.345Z,56.64
2018-12-07T07:34:48.265Z,56.49
2018-12-07T07:37:14.203Z,56.16
2018-12-07T07:39:40.157Z,56.57
2018-12-07T07:42:06.086Z,56.37
2018-12-07T07:44:32.020Z,56.44
2018-12-07T07:46:57.941Z,56.54
2018-12-07T07:49:23.907Z,56.48
2018-12-07T07:51:49.860Z,56.41
2018-12-07T07:54:15.804Z,56.41
2018-12-07T07:56:41.724Z,56.50
2018-12-07T07:59:07.646Z,56.46
2018-12-07T08:01:34.660Z,56.47
2018-12-07T08:04:02.097Z,56.72
2018-12-07T08:06:28.063Z,56.66
2018-12-07T08:08:54.818Z,56.70
2018-12-07T08:11:21.721Z,56.26
2018-12-07T08:13:47.660Z,56.77
2018-12-07T08:16:13.666Z,56.74
2018-12-07T08:18:39.593Z,56.70
2018-12-07T08:21:06.583Z,56.57
2018-12-07T08:23:33.510Z,56.56
2018-12-07T08:25:59.482Z,56.78
2018-12-07T08:28:25.497Z,56.80
2018-12-07T08:30:51.460Z,56.44
2018-12-07T08:33:18.308Z,56.70
2018-12-07T08:35:44.243Z,56.49
2018-12-07T08:38:11.201Z,56.90
2018-12-07T08:40:37.212Z,56.77
2018-12-07T08:43:03.153Z,56.93
2018-12-07T08:45:29.812Z,57.16
2018-12-07T08:47:55.787Z,57.27
2018-12-07T08:50:22.679Z,57.52
2018-12-07T08:52:48.609Z,57.90
2018-12-07T08:55:14.574Z,58.01
2018-12-07T08:57:40.527Z,58.13
2018-12-07T09:00:07.617Z,58.36
2018-12-07T09:02:34.367Z,58.41
2018-12-07T09:05:00.412Z,58.41
2018-12-07T09:07:26.350Z,58.60
2018-12-07T09:09:52.348Z,58.34
2018-12-07T09:12:18.370Z,58.37
2018-12-07T09:14:45.762Z,58.54
2018-12-07T09:17:14.581Z,58.53
2018-12-07T09:19:41.167Z,58.39
2018-12-07T09:22:08.090Z,58.61
2018-12-07T09:24:34.228Z,58.50
2018-12-07T09:27:00.191Z,58.53
2018-12-07T09:29:27.395Z,58.65
2018-12-07T09:32:01.935Z,59.08
2018-12-07T09:34:27.884Z,58.75
2018-12-07T09:36:53.913Z,59.29
2018-12-07T09:39:19.904Z,59.39
2018-12-07T09:41:46.833Z,59.35
2018-12-07T09:44:12.803Z,59.29
2018-12-07T09:46:39.570Z,59.19
2018-12-07T09:49:06.387Z,59.49
2018-12-07T09:51:32.347Z,59.17
2018-12-07T09:53:58.358Z,58.66
2018-12-07T09:56:25.128Z,58.65
2018-12-07T09:58:52.026Z,58.70
2018-12-07T10:01:19.035Z,58.17
2018-12-07T10:03:45.072Z,58.06
2018-12-07T10:06:11.123Z,57.93
2018-12-07T10:08:37.059Z,57.82
2018-12-07T10:11:03.010Z,57.90
2018-12-07T10:16:20.948Z,57.82
2018-12-07T10:18:47.864Z,58.13
2018-12-07T10:21:13.859Z,58.02
2018-12-07T10:23:39.917Z,58.16
2018-12-07T10:26:07.693Z,57.67
2018-12-07T10:28:35.566Z,58.34
2018-12-07T10:31:02.319Z,57.82
2018-12-07T10:33:28.651Z,57.70
2018-12-07T10:35:55.909Z,57.54
2018-12-07T10:38:22.466Z,57.59
2018-12-07T10:40:48.427Z,57.71
2018-12-07T10:43:15.282Z,57.48
2018-12-07T10:45:41.734Z,56.91
2018-12-07T10:48:08.973Z,56.98
2018-12-07T10:50:35.001Z,56.97
2018-12-07T10:53:02.024Z,57.17
2018-12-07T10:55:27.936Z,57.46
2018-12-07T10:57:53.881Z,57.30
2018-12-07T11:00:27.116Z,56.95
2018-12-07T11:02:59.204Z,57.10
2018-12-07T11:05:31.882Z,57.26
2018-12-07T11:08:03.886Z,57.23
2018-12-07T11:10:35.999Z,57.03
2018-12-07T11:13:08.789Z,57.36
2018-12-07T11:15:41.103Z,57.49
2018-12-07T11:21:14.738Z,57.31
2018-12-07T11:23:46.875Z,57.49
2018-12-07T11:26:19.008Z,57.36
2018-12-07T11:28:51.010Z,57.50
2018-12-07T11:31:23.097Z,57.49
2018-12-07T11:33:51.073Z,57.80
2018-12-07T11:36:17.330Z,57.27
2018-12-07T11:38:43.447Z,57.23
2018-12-07T11:41:09.425Z,57.72
2018-12-07T11:43:36.474Z,57.14
2018-12-07T11:46:02.701Z,57.49
2018-12-07T11:48:28.649Z,57.24
2018-12-07T11:50:55.435Z,57.29
2018-12-07T11:53:21.422Z,57.48
2018-12-07T11:55:47.484Z,57.54
2018-12-07T11:58:13.445Z,57.41
2018-12-07T12:00:39.778Z,57.88
2018-12-07T12:03:05.715Z,57.68
2018-12-07T12:05:32.351Z,57.84
2018-12-07T12:07:58.332Z,57.76
2018-12-07T12:10:24.310Z,57.27
2018-12-07T12:12:50.253Z,57.27
2018-12-07T12:15:16.218Z,57.11
2018-12-07T12:17:42.162Z,57.21
2018-12-07T12:20:09.079Z,57.14
2018-12-07T12:22:36.025Z,56.93
2018-12-07T12:25:03.384Z,57.03
2018-12-07T12:27:29.324Z,56.55
2018-12-07T12:29:56.207Z,56.84
2018-12-07T12:32:22.148Z,57.05
2018-12-07T12:34:48.090Z,57.39
2018-12-07T12:37:13.947Z,57.44
2018-12-07T12:39:40.871Z,57.37
2018-12-07T12:42:06.882Z,57.42
2018-12-07T12:44:32.940Z,57.59
2018-12-07T12:46:58.926Z,57.52
2018-12-07T12:49:27.479Z,57.51
2018-12-07T12:51:53.948Z,57.49
2018-12-07T12:54:19.889Z,57.86
2018-12-07T12:56:45.831Z,57.46
2018-12-07T12:59:11.773Z,57.67
2018-12-07T13:01:37.699Z,57.83
2018-12-07T13:04:03.646Z,57.52
2018-12-07T13:06:29.582Z,57.60
2018-12-07T13:08:55.598Z,57.74
2018-12-07T13:11:21.603Z,57.76
2018-12-07T13:13:48.383Z,58.17
2018-12-07T13:16:14.364Z,57.83
2018-12-07T13:18:40.416Z,57.57
2018-12-07T13:21:06.451Z,57.88
2018-12-07T13:23:32.474Z,57.90
2018-12-07T13:25:58.459Z,58.24
2018-12-07T13:28:24.592Z,57.93
2018-12-07T13:30:51.402Z,58.14
2018-12-07T13:33:17.349Z,57.89
2018-12-07T13:35:43.379Z,58.52
2018-12-07T13:38:09.310Z,58.15
2018-12-07T13:40:35.390Z,58.26
2018-12-07T13:43:02.089Z,58.11
2018-12-07T13:45:28.171Z,57.67
2018-12-07T13:47:55.463Z,58.27
2018-12-07T13:50:27.929Z,58.18
2018-12-07T13:52:54.079Z,58.52
2018-12-07T13:55:20.158Z,58.20
2018-12-07T13:57:46.105Z,58.44
2018-12-07T14:00:13.101Z,58.26
2018-12-07T14:02:39.178Z,58.40
2018-12-07T14:05:06.078Z,58.60
2018-12-07T14:07:32.289Z,58.45
2018-12-07T14:09:58.413Z,58.45
2018-12-07T14:12:24.447Z,58.26
2018-12-07T14:14:51.227Z,58.53
2018-12-07T14:17:18.633Z,58.52
2018-12-07T14:19:46.418Z,58.26
2018-12-07T14:22:12.511Z,58.21
2018-12-07T14:24:38.622Z,58.22
2018-12-07T14:27:05.810Z,57.98
2018-12-07T14:29:33.047Z,58.26
2018-12-07T14:31:59.021Z,57.88
2018-12-07T14:34:25.060Z,58.03
2018-12-07T14:36:51.320Z,58.30
2018-12-07T14:39:18.301Z,58.49
2018-12-07T14:41:44.416Z,58.44
2018-12-07T14:44:10.481Z,58.32
2018-12-07T14:46:36.868Z,58.47
2018-12-07T14:49:02.894Z,57.98
2018-12-07T14:51:29.806Z,57.96
2018-12-07T14:53:55.808Z,58.03
2018-12-07T14:56:22.005Z,58.23
2018-12-07T14:58:48.011Z,58.26
2018-12-07T15:01:14.414Z,58.49
2018-12-07T15:03:40.390Z,58.31
2018-12-07T15:06:06.481Z,58.30
2018-12-07T15:08:33.583Z,58.17
2018-12-07T15:11:00.903Z,58.47
2018-12-07T15:13:27.898Z,58.47
2018-12-07T15:15:54.202Z,58.40
2018-12-07T15:18:21.445Z,58.56
2018-12-07T15:20:47.667Z,58.23
2018-12-07T15:23:14.079Z,58.54
2018-12-07T15:25:40.062Z,58.14
2018-12-07T15:28:06.024Z,58.24
2018-12-07T15:30:32.654Z,58.40
2018-12-07T15:32:58.807Z,58.60
2018-12-07T15:35:24.841Z,58.45
2018-12-07T15:37:50.917Z,58.42
2018-12-07T15:40:17.071Z,58.42
2018-12-07T15:42:43.258Z,58.52
2018-12-07T15:45:09.315Z,58.28
2018-12-07T15:47:36.345Z,58.61
2018-12-07T15:50:02.716Z,58.61
2018-12-07T15:52:29.621Z,58.58
2018-12-07T15:54:56.385Z,58.77
2018-12-07T15:57:22.639Z,58.35
2018-12-07T15:59:50.197Z,58.58
2018-12-07T16:02:17.218Z,58.74
2018-12-07T16:04:44.172Z,58.44
2018-12-07T16:07:10.138Z,58.47
2018-12-07T16:09:38.363Z,58.22
2018-12-07T16:12:05.693Z,57.96
2018-12-07T16:14:32.255Z,58.15
2018-12-07T16:16:59.300Z,58.08
2018-12-07T16:19:26.501Z,58.30
2018-12-07T16:21:53.744Z,58.42
2018-12-07T16:24:20.066Z,58.40
2018-12-07T16:26:46.359Z,58.31
2018-12-07T16:29:12.350Z,58.54
2018-12-07T16:31:38.576Z,58.42
2018-12-07T16:34:04.587Z,58.48
2018-12-07T16:36:32.488Z,58.01
2018-12-07T16:38:58.777Z,58.32
2018-12-07T16:41:24.801Z,58.54
2018-12-07T16:43:50.918Z,58.57
2018-12-07T16:46:16.959Z,58.83
2018-12-07T16:48:43.093Z,58.67
2018-12-07T16:51:10.069Z,58.57
2018-12-07T16:53:36.339Z,58.68
2018-12-07T16:56:02.422Z,58.34
2018-12-07T16:58:28.450Z,58.54
2018-12-07T17:00:57.279Z,58.74
2018-12-07T17:03:24.133Z,58.59
2018-12-07T17:05:51.290Z,58.06
2018-12-07T17:08:17.624Z,58.37
2018-12-07T17:10:43.868Z,58.42
2018-12-07T17:13:10.623Z,58.46
2018-12-07T17:15:37.703Z,58.06
2018-12-07T17:18:04.498Z,58.41
2018-12-07T17:20:30.697Z,58.49
2018-12-07T17:22:56.946Z,58.37
2018-12-07T17:25:23.079Z,58.47
2018-12-07T17:27:50.193Z,58.21
2018-12-07T17:30:16.348Z,58.51
2018-12-07T17:32:42.531Z,58.53
2018-12-07T17:35:08.464Z,58.48
2018-12-07T17:37:34.606Z,58.37
2018-12-07T17:40:02.541Z,58.42
2018-12-07T17:42:29.940Z,58.32
2018-12-07T17:44:56.480Z,58.29
2018-12-07T17:47:22.637Z,58.21
2018-12-07T17:49:49.388Z,58.40
2018-12-07T17:52:15.526Z,58.52
2018-12-07T17:54:41.842Z,58.31
2018-12-07T17:57:08.051Z,58.37
2018-12-07T17:59:34.264Z,58.47
2018-12-07T18:02:01.807Z,58.21
2018-12-07T18:04:28.757Z,58.37
2018-12-07T18:06:54.843Z,58.37
2018-12-07T18:09:21.847Z,58.26
2018-12-07T18:11:49.075Z,58.48
2018-12-07T18:14:16.276Z,58.58
2018-12-07T18:16:42.308Z,58.72
2018-12-07T18:19:08.385Z,58.47
2018-12-07T18:21:34.762Z,58.20
2018-12-07T18:24:07.589Z,58.07
2018-12-07T18:26:34.442Z,58.29
2018-12-07T18:29:02.496Z,58.13
2018-12-07T18:31:28.687Z,58.42
2018-12-07T18:33:55.688Z,57.90
2018-12-07T18:36:21.680Z,58.28
2018-12-07T18:38:48.708Z,58.02
2018-12-07T18:41:15.200Z,57.80
2018-12-07T18:43:42.337Z,57.93
2018-12-07T18:46:08.474Z,58.02
2018-12-07T18:48:35.573Z,58.31
2018-12-07T18:51:03.289Z,58.63
2018-12-07T18:53:30.332Z,57.98
2018-12-07T18:55:56.458Z,58.47
2018-12-07T18:58:22.545Z,58.37
2018-12-07T19:00:48.668Z,58.47
2018-12-07T19:03:14.772Z,58.16
2018-12-07T19:05:41.965Z,58.29
2018-12-07T19:08:08.144Z,58.00
2018-12-07T19:10:35.173Z,58.49
2018-12-07T19:13:02.229Z,58.39
2018-12-07T19:15:35.061Z,58.83
2018-12-07T19:18:01.660Z,58.40
2018-12-07T19:20:28.295Z,58.57
2018-12-07T19:23:10.065Z,58.74
2018-12-07T19:25:36.128Z,58.51
2018-12-07T19:28:02.343Z,58.44
2018-12-07T19:30:29.603Z,58.70
2018-12-07T19:32:56.778Z,58.24
2018-12-07T19:35:22.987Z,58.32
2018-12-07T19:37:49.311Z,58.29
2018-12-07T19:40:16.373Z,58.36
2018-12-07T19:42:42.620Z,58.33
2018-12-07T19:45:08.817Z,58.22
2018-12-07T19:47:35.685Z,58.59
2018-12-07T19:50:03.619Z,58.17
2018-12-07T19:52:30.028Z,58.42
2018-12-07T19:54:56.074Z,58.93
2018-12-07T19:57:22.191Z,58.05
2018-12-07T19:59:48.873Z,58.27
2018-12-07T20:02:15.179Z,58.38
2018-12-07T20:04:42.434Z,58.44
2018-12-07T20:07:08.720Z,58.17
2018-12-07T20:09:35.047Z,58.24
2018-12-07T20:12:02.076Z,58.29
2018-12-07T20:14:28.198Z,58.03
2018-12-07T20:16:54.502Z,58.42
2018-12-07T20:19:20.682Z,58.23
2018-12-07T20:21:46.787Z,58.49
2018-12-07T20:24:13.801Z,58.67
2018-12-07T20:26:40.839Z,58.52
2018-12-07T20:29:06.788Z,58.21
2018-12-07T20:31:32.940Z,58.01
2018-12-07T20:33:59.175Z,58.26
2018-12-07T20:36:26.378Z,57.87
2018-12-07T20:38:52.678Z,57.95
2018-12-07T20:41:18.806Z,58.24
2018-12-07T20:43:44.978Z,58.06
2018-12-07T20:46:10.967Z,57.92
2018-12-07T20:48:36.967Z,58.23
2018-12-07T20:51:03.797Z,58.00
2018-12-07T20:53:30.086Z,58.42
2018-12-07T20:55:56.458Z,57.90
2018-12-07T20:58:22.577Z,57.75
2018-12-07T21:00:48.673Z,58.18
2018-12-07T21:03:14.856Z,57.98
2018-12-07T21:05:49.708Z,58.03
2018-12-07T21:11:19.384Z,58.08
2018-12-07T21:13:54.830Z,58.37
2018-12-07T21:16:56.058Z,57.80
2018-12-07T21:19:22.605Z,57.34
2018-12-07T21:21:48.608Z,57.76
2018-12-07T21:24:15.398Z,57.98
2018-12-07T21:26:42.340Z,57.92
2018-12-07T21:29:08.556Z,57.93
2018-12-07T21:31:36.955Z,57.83
2018-12-07T21:34:12.302Z,57.75
2018-12-07T21:36:40.008Z,57.44
2018-12-07T21:39:11.711Z,57.91
2018-12-07T21:41:37.745Z,57.76
2018-12-07T21:44:04.903Z,57.98
2018-12-07T21:46:31.145Z,57.96
2018-12-07T21:48:58.142Z,57.85
2018-12-07T21:51:26.487Z,58.00
2018-12-07T21:53:52.503Z,57.88
2018-12-07T21:56:18.661Z,58.03
2018-12-07T21:58:45.529Z,57.46
2018-12-07T22:01:11.569Z,57.48
2018-12-07T22:03:37.921Z,57.79
2018-12-07T22:06:04.195Z,57.55
2018-12-07T22:08:31.322Z,57.52
2018-12-07T22:10:57.411Z,57.71
2018-12-07T22:13:24.424Z,57.73
2018-12-07T22:15:50.524Z,57.55
2018-12-07T22:18:16.492Z,57.45
2018-12-07T22:20:42.608Z,57.65
2018-12-07T22:23:08.735Z,57.31
2018-12-07T22:25:34.773Z,57.16
2018-12-07T22:28:00.926Z,57.33
2018-12-07T22:30:27.119Z,57.72
2018-12-07T22:32:53.626Z,57.72
2018-12-07T22:35:19.748Z,57.36
2018-12-07T22:37:45.920Z,57.70
2018-12-07T22:40:12.163Z,56.83
2018-12-07T22:42:38.277Z,57.50
2018-12-07T22:45:04.395Z,57.58
2018-12-07T22:47:30.664Z,57.36
2018-12-07T22:49:56.782Z,57.44
2018-12-07T22:52:23.721Z,57.19
2018-12-07T22:54:49.701Z,57.72
2018-12-07T22:57:16.660Z,57.36
2018-12-07T22:59:42.619Z,56.99
2018-12-07T23:02:09.449Z,56.93
2018-12-07T23:04:35.481Z,57.31
2018-12-07T23:07:02.362Z,57.18
2018-12-07T23:09:28.356Z,57.18
2018-12-07T23:11:54.401Z,57.18
2018-12-07T23:14:21.394Z,57.13
2018-12-07T23:16:47.321Z,56.90
2018-12-07T23:19:13.263Z,57.04
2018-12-07T23:21:39.240Z,57.03
2018-12-07T23:24:06.084Z,57.35
2018-12-07T23:26:32.283Z,57.13
2018-12-07T23:28:59.019Z,57.04
2018-12-07T23:31:25.016Z,56.80
2018-12-07T23:33:51.783Z,56.89
2018-12-07T23:36:17.724Z,56.87
2018-12-07T23:38:43.677Z,57.54
2018-12-07T23:41:09.660Z,57.01
2018-12-07T23:43:35.601Z,56.83
2018-12-07T23:46:02.606Z,56.67
2018-12-07T23:48:28.584Z,56.68
2018-12-07T23:50:54.562Z,57.62
2018-12-07T23:53:20.526Z,57.42
2018-12-07T23:55:46.453Z,57.16
2018-12-07T23:58:12.442Z,56.83
